ハバロフスク の空港の天気 - METARとTAF

ハバロフスク空港 ( UHHH / KHV ) - ロシア ハバロフスク
飛行場実況気象(Metar)
観測時間06/20 02:00 VLAT (06/19 16:00 UTC)
風向・風速不定 1m/s
視程10km以上
天気現象弱いしゅう雨
全天の4割程度の雲 雲底高度 980m
気温17℃
湿度94%
気圧999hPa
METARUHHH 191600Z VRB01MPS 9999 -SHRA SCT032CB 17/16 Q0999 R23L/090060 NOSIG RMK QFE743/0991
過去の天気等 Google飛行場航空写真 Wunderground天気予報

過去48時間のMETAR

飛行場予報(TAF)
発表時間: 6/20 00:04 VLAT (6/19 14:04 UTC)
予報対象時間: 20日1時 VLAT ~ 21日7時 VLAT
風向・風速南南西 3m/s
視程5000m
天気現象弱いしゅう雨 もや
全天の4割程度の雲 雲底高度 180m
全天を覆う積乱雲 雲底高度 610m
20日1時 VLAT ~ 20日22時 VLAT に一時的に
風向・風速不定 6m/s
視程2000m
天気現象雷雨 もや
全天の8割程度の雲 雲底高度 90m
全天を覆う積乱雲 雲底高度 460m
TAF AMD UHHH 191404Z 1915/2021 20003MPS 5000 -SHRA BR SCT006 OVC020CB
TEMPO 1915/2012 VRB06MPS 2000 TSRA BR BKN003 OVC015CB